sensor_id;sensor_type;location;lat;lon;timestamp;temperature;humidity
19263;DHT22;9765;52.354;20.884;2022-11-15T07:57:26;5.40;99.90
19263;DHT22;9765;52.354;20.884;2022-11-15T07:59:53;5.40;99.90
19263;DHT22;9765;52.354;20.884;2022-11-15T08:02:20;5.50;99.90
19263;DHT22;9765;52.354;20.884;2022-11-15T08:04:46;5.50;99.90
19263;DHT22;9765;52.354;20.884;2022-11-15T08:07:13;5.50;99.90
19263;DHT22;9765;52.354;20.884;2022-11-15T08:09:39;5.50;99.90
19263;DHT22;9765;52.354;20.884;2022-11-15T08:12:06;5.50;99.90
19263;DHT22;9765;52.354;20.884;2022-11-15T08:14:34;5.50;99.90
19263;DHT22;9765;52.354;20.884;2022-11-15T08:17:01;5.60;99.90
19263;DHT22;9765;52.354;20.884;2022-11-15T08:19:28;5.60;99.90
19263;DHT22;9765;52.354;20.884;2022-11-15T08:21:54;5.60;99.90
19263;DHT22;9765;52.354;20.884;2022-11-15T08:24:21;5.60;99.90
19263;DHT22;9765;52.354;20.884;2022-11-15T08:26:48;5.60;99.90
19263;DHT22;9765;52.354;20.884;2022-11-15T08:29:14;5.70;99.90
19263;DHT22;9765;52.354;20.884;2022-11-15T08:31:42;5.70;99.90
19263;DHT22;9765;52.354;20.884;2022-11-15T08:34:09;5.70;99.90
19263;DHT22;9765;52.354;20.884;2022-11-15T08:36:35;5.80;99.90
19263;DHT22;9765;52.354;20.884;2022-11-15T08:39:02;5.70;99.90
19263;DHT22;9765;52.354;20.884;2022-11-15T08:41:33;5.70;99.90
19263;DHT22;9765;52.354;20.884;2022-11-15T08:44:01;5.70;99.90
19263;DHT22;9765;52.354;20.884;2022-11-15T08:46:27;5.80;99.90
19263;DHT22;9765;52.354;20.884;2022-11-15T08:48:55;5.80;99.90
19263;DHT22;9765;52.354;20.884;2022-11-15T08:51:22;5.80;99.90
19263;DHT22;9765;52.354;20.884;2022-11-15T08:53:49;5.80;99.90
19263;DHT22;9765;52.354;20.884;2022-11-15T08:56:15;5.90;99.90
19263;DHT22;9765;52.354;20.884;2022-11-15T08:58:42;5.90;99.90
19263;DHT22;9765;52.354;20.884;2022-11-15T09:01:15;5.90;99.90
19263;DHT22;9765;52.354;20.884;2022-11-15T09:03:42;5.90;99.90
19263;DHT22;9765;52.354;20.884;2022-11-15T09:06:11;6.00;99.90
19263;DHT22;9765;52.354;20.884;2022-11-15T09:08:37;6.00;99.90
19263;DHT22;9765;52.354;20.884;2022-11-15T09:11:04;6.00;99.90
19263;DHT22;9765;52.354;20.884;2022-11-15T09:13:31;6.00;99.90
19263;DHT22;9765;52.354;20.884;2022-11-15T09:15:58;6.10;99.90
19263;DHT22;9765;52.354;20.884;2022-11-15T09:18:25;6.10;99.90
19263;DHT22;9765;52.354;20.884;2022-11-15T09:20:55;6.10;99.90
19263;DHT22;9765;52.354;20.884;2022-11-15T09:23:24;6.10;99.90
19263;DHT22;9765;52.354;20.884;2022-11-15T09:25:51;6.10;99.90
19263;DHT22;9765;52.354;20.884;2022-11-15T09:28:18;6.10;99.90
19263;DHT22;9765;52.354;20.884;2022-11-15T09:30:45;6.10;99.90
19263;DHT22;9765;52.354;20.884;2022-11-15T09:33:12;6.10;99.90
19263;DHT22;9765;52.354;20.884;2022-11-15T09:35:39;6.10;99.90
19263;DHT22;9765;52.354;20.884;2022-11-15T09:38:06;6.20;99.90
19263;DHT22;9765;52.354;20.884;2022-11-15T09:40:36;6.20;99.90
19263;DHT22;9765;52.354;20.884;2022-11-15T09:43:26;6.20;99.90
19263;DHT22;9765;52.354;20.884;2022-11-15T09:46:04;6.20;99.90
19263;DHT22;9765;52.354;20.884;2022-11-15T09:48:53;6.30;99.90
19263;DHT22;9765;52.354;20.884;2022-11-15T09:51:27;6.20;99.90
19263;DHT22;9765;52.354;20.884;2022-11-15T09:54:00;6.20;99.90
19263;DHT22;9765;52.354;20.884;2022-11-15T09:56:30;6.30;99.90
19263;DHT22;9765;52.354;20.884;2022-11-15T09:59:05;6.30;99.90
19263;DHT22;9765;52.354;20.884;2022-11-15T10:01:39;6.30;99.90
19263;DHT22;9765;52.354;20.884;2022-11-15T10:04:08;6.30;99.90
19263;DHT22;9765;52.354;20.884;2022-11-15T10:06:38;6.30;99.90
19263;DHT22;9765;52.354;20.884;2022-11-15T10:09:11;6.30;99.90
19263;DHT22;9765;52.354;20.884;2022-11-15T10:11:41;6.30;99.90
19263;DHT22;9765;52.354;20.884;2022-11-15T10:14:12;6.30;99.90
19263;DHT22;9765;52.354;20.884;2022-11-15T10:17:08;6.20;99.90
19263;DHT22;9765;52.354;20.884;2022-11-15T10:19:45;6.20;99.90
19263;DHT22;9765;52.354;20.884;2022-11-15T10:22:22;6.20;99.90
19263;DHT22;9765;52.354;20.884;2022-11-15T10:24:58;6.20;99.90
19263;DHT22;9765;52.354;20.884;2022-11-15T10:27:29;6.30;99.90
19263;DHT22;9765;52.354;20.884;2022-11-15T10:29:56;6.30;99.90
19263;DHT22;9765;52.354;20.884;2022-11-15T10:32:22;6.20;99.90
19263;DHT22;9765;52.354;20.884;2022-11-15T10:34:49;6.20;99.90
19263;DHT22;9765;52.354;20.884;2022-11-15T10:37:27;6.20;99.90
19263;DHT22;9765;52.354;20.884;2022-11-15T10:40:03;6.20;99.90
19263;DHT22;9765;52.354;20.884;2022-11-15T10:42:31;6.20;99.90
19263;DHT22;9765;52.354;20.884;2022-11-15T10:44:58;6.20;99.90
19263;DHT22;9765;52.354;20.884;2022-11-15T10:47:27;6.30;99.90
19263;DHT22;9765;52.354;20.884;2022-11-15T10:49:58;6.30;99.90
19263;DHT22;9765;52.354;20.884;2022-11-15T10:52:26;6.30;99.90
19263;DHT22;9765;52.354;20.884;2022-11-15T10:54:55;6.30;99.90
19263;DHT22;9765;52.354;20.884;2022-11-15T10:57:27;6.40;99.90
19263;DHT22;9765;52.354;20.884;2022-11-15T10:59:58;6.40;99.90
19263;DHT22;9765;52.354;20.884;2022-11-15T11:02:32;6.40;99.90
19263;DHT22;9765;52.354;20.884;2022-11-15T11:05:00;6.40;99.90
19263;DHT22;9765;52.354;20.884;2022-11-15T11:07:29;6.40;99.90
19263;DHT22;9765;52.354;20.884;2022-11-15T11:10:00;6.40;99.90
19263;DHT22;9765;52.354;20.884;2022-11-15T11:12:29;6.70;99.90
19263;DHT22;9765;52.354;20.884;2022-11-15T11:14:59;6.40;99.90
19263;DHT22;9765;52.354;20.884;2022-11-15T11:17:34;6.40;99.90
19263;DHT22;9765;52.354;20.884;2022-11-15T11:20:10;6.40;99.90
19263;DHT22;9765;52.354;20.884;2022-11-15T11:22:51;6.40;99.90
19263;DHT22;9765;52.354;20.884;2022-11-15T11:25:28;6.50;99.90
19263;DHT22;9765;52.354;20.884;2022-11-15T11:28:11;6.50;99.90
19263;DHT22;9765;52.354;20.884;2022-11-15T11:30:53;6.40;99.90
19263;DHT22;9765;52.354;20.884;2022-11-15T11:33:24;6.40;99.90
19263;DHT22;9765;52.354;20.884;2022-11-15T11:36:02;6.40;99.90
19263;DHT22;9765;52.354;20.884;2022-11-15T11:38:48;6.40;99.90
19263;DHT22;9765;52.354;20.884;2022-11-15T11:41:24;6.50;99.90
19263;DHT22;9765;52.354;20.884;2022-11-15T11:44:02;6.50;99.90
19263;DHT22;9765;52.354;20.884;2022-11-15T11:46:48;6.50;99.90
19263;DHT22;9765;52.354;20.884;2022-11-15T11:49:18;6.50;99.90
19263;DHT22;9765;52.354;20.884;2022-11-15T11:51:51;6.50;99.90
19263;DHT22;9765;52.354;20.884;2022-11-15T11:54:22;6.50;99.90
19263;DHT22;9765;52.354;20.884;2022-11-15T11:56:50;6.50;99.90
19263;DHT22;9765;52.354;20.884;2022-11-15T11:59:24;6.50;99.90
19263;DHT22;9765;52.354;20.884;2022-11-15T12:01:53;6.60;99.90
19263;DHT22;9765;52.354;20.884;2022-11-15T12:04:24;6.60;99.90
19263;DHT22;9765;52.354;20.884;2022-11-15T12:06:57;6.60;99.90
19263;DHT22;9765;52.354;20.884;2022-11-15T12:09:32;6.60;99.90
19263;DHT22;9765;52.354;20.884;2022-11-15T12:12:04;6.60;99.90
19263;DHT22;9765;52.354;20.884;2022-11-15T12:14:37;6.60;99.90
19263;DHT22;9765;52.354;20.884;2022-11-15T12:17:08;6.60;99.90
19263;DHT22;9765;52.354;20.884;2022-11-15T12:19:36;6.60;99.90
19263;DHT22;9765;52.354;20.884;2022-11-15T12:22:06;6.70;99.90
19263;DHT22;9765;52.354;20.884;2022-11-15T12:24:39;6.60;99.90
19263;DHT22;9765;52.354;20.884;2022-11-15T12:27:16;6.60;99.90
19263;DHT22;9765;52.354;20.884;2022-11-15T12:29:46;6.60;99.90
19263;DHT22;9765;52.354;20.884;2022-11-15T12:32:28;6.70;99.90
19263;DHT22;9765;52.354;20.884;2022-11-15T12:34:56;6.70;99.90
19263;DHT22;9765;52.354;20.884;2022-11-15T12:37:48;6.70;99.90
19263;DHT22;9765;52.354;20.884;2022-11-15T12:40:32;6.70;99.90
19263;DHT22;9765;52.354;20.884;2022-11-15T12:43:05;6.70;99.90
19263;DHT22;9765;52.354;20.884;2022-11-15T12:45:51;6.70;99.90
19263;DHT22;9765;52.354;20.884;2022-11-15T12:54:54;6.70;99.90
19263;DHT22;9765;52.354;20.884;2022-11-15T12:57:30;6.70;99.90
19263;DHT22;9765;52.354;20.884;2022-11-15T12:59:58;6.70;99.90
19263;DHT22;9765;52.354;20.884;2022-11-15T13:02:29;6.80;99.90
19263;DHT22;9765;52.354;20.884;2022-11-15T13:08:35;6.90;99.90
19263;DHT22;9765;52.354;20.884;2022-11-15T13:14:42;6.70;99.90
19263;DHT22;9765;52.354;20.884;2022-11-15T13:17:29;6.60;99.90
19263;DHT22;9765;52.354;20.884;2022-11-15T13:22:45;6.60;99.90
19263;DHT22;9765;52.354;20.884;2022-11-15T13:25:40;6.70;99.90
19263;DHT22;9765;52.354;20.884;2022-11-15T13:28:18;6.70;99.90
19263;DHT22;9765;52.354;20.884;2022-11-15T13:30:53;6.70;99.90
19263;DHT22;9765;52.354;20.884;2022-11-15T13:33:23;6.70;99.90
19263;DHT22;9765;52.354;20.884;2022-11-15T13:35:56;6.70;99.90
19263;DHT22;9765;52.354;20.884;2022-11-15T13:38:28;6.70;99.90
19263;DHT22;9765;52.354;20.884;2022-11-15T13:40:58;6.60;99.90
